createdAt,value
2023-12-24T00:01:17.823Z,14.13
2023-12-24T00:03:45.187Z,14.15
2023-12-24T00:06:12.606Z,14.13
2023-12-24T00:08:39.873Z,14.13
2023-12-24T00:11:07.248Z,14.15
2023-12-24T00:13:34.891Z,14.17
2023-12-24T00:16:02.465Z,14.17
2023-12-24T00:18:29.854Z,14.22
2023-12-24T00:20:57.227Z,14.21
2023-12-24T00:23:24.477Z,14.19
2023-12-24T00:25:51.620Z,14.22
2023-12-24T00:28:18.716Z,14.22
2023-12-24T00:30:47.349Z,14.22
2023-12-24T00:33:14.689Z,14.24
2023-12-24T00:35:41.941Z,14.25
2023-12-24T00:38:09.164Z,14.28
2023-12-24T00:40:36.334Z,14.29
2023-12-24T00:43:03.648Z,14.29
2023-12-24T00:45:32.438Z,14.28
2023-12-24T00:47:59.817Z,14.29
2023-12-24T00:50:27.191Z,14.30
2023-12-24T00:52:55.012Z,14.31
2023-12-24T00:55:22.412Z,14.31
2023-12-24T00:57:49.554Z,14.36
2023-12-24T01:00:16.860Z,14.37
2023-12-24T01:02:43.936Z,14.34
2023-12-24T01:05:11.111Z,14.40
2023-12-24T01:07:38.218Z,14.38
2023-12-24T01:10:06.486Z,14.40
2023-12-24T01:12:34.010Z,14.37
2023-12-24T01:15:01.162Z,14.39
2023-12-24T01:17:28.489Z,14.38
2023-12-24T01:19:58.166Z,14.37
2023-12-24T01:22:25.434Z,14.36
2023-12-24T01:24:52.488Z,14.30
2023-12-24T01:27:19.585Z,14.34
2023-12-24T01:29:46.761Z,14.32
2023-12-24T01:32:14.494Z,14.29
2023-12-24T01:34:42.645Z,14.27
2023-12-24T01:37:09.730Z,14.28
2023-12-24T01:39:36.947Z,14.31
2023-12-24T01:42:04.508Z,14.29
2023-12-24T01:44:31.735Z,14.26
2023-12-24T01:46:59.572Z,14.23
2023-12-24T01:49:27.198Z,14.28
2023-12-24T01:51:55.569Z,14.29
2023-12-24T01:54:23.655Z,14.30
2023-12-24T01:56:50.809Z,14.32
2023-12-24T01:59:18.440Z,14.33
2023-12-24T02:01:47.347Z,14.33
2023-12-24T02:04:16.293Z,14.34
2023-12-24T02:06:44.640Z,14.31
2023-12-24T02:09:12.034Z,14.33
2023-12-24T02:11:39.165Z,14.29
2023-12-24T02:14:06.504Z,14.34
2023-12-24T02:16:39.209Z,14.36
2023-12-24T02:19:12.237Z,14.36
2023-12-24T02:21:39.389Z,14.38
2023-12-24T02:24:07.400Z,14.38
2023-12-24T02:26:49.072Z,14.42
2023-12-24T02:29:27.783Z,14.40
2023-12-24T02:32:06.194Z,14.38
2023-12-24T02:34:34.425Z,14.39
2023-12-24T02:37:02.012Z,14.40
2023-12-24T02:39:29.077Z,14.41
2023-12-24T02:41:56.248Z,14.40
2023-12-24T02:44:23.466Z,14.42
2023-12-24T02:46:50.546Z,14.43
2023-12-24T02:49:17.953Z,14.43
2023-12-24T02:51:45.166Z,14.47
2023-12-24T02:54:12.329Z,14.47
2023-12-24T02:56:39.491Z,14.45
2023-12-24T02:59:06.759Z,14.41
2023-12-24T03:01:33.869Z,14.39
2023-12-24T03:04:03.361Z,14.36
2023-12-24T03:06:30.424Z,14.33
2023-12-24T03:08:57.533Z,14.41
2023-12-24T03:11:24.639Z,14.41
2023-12-24T03:13:51.704Z,14.36
2023-12-24T03:16:19.596Z,14.42
2023-12-24T03:18:46.807Z,14.44
2023-12-24T03:21:13.944Z,14.43
2023-12-24T03:23:41.062Z,14.45
2023-12-24T03:26:18.176Z,14.48
2023-12-24T03:28:45.697Z,14.47
2023-12-24T03:31:15.977Z,14.51
2023-12-24T03:33:44.232Z,14.55
2023-12-24T03:36:11.558Z,14.62
2023-12-24T03:38:38.829Z,14.64
2023-12-24T03:41:06.200Z,14.59
2023-12-24T03:43:33.873Z,14.61
2023-12-24T03:46:01.074Z,14.65
2023-12-24T03:48:28.484Z,14.65
2023-12-24T03:50:55.661Z,14.69
2023-12-24T03:53:22.864Z,14.69
2023-12-24T03:55:49.944Z,14.70
2023-12-24T03:58:17.154Z,14.64
2023-12-24T04:00:44.274Z,14.71
2023-12-24T04:03:11.403Z,14.73
2023-12-24T04:05:38.628Z,14.74
2023-12-24T04:08:06.099Z,14.81
2023-12-24T04:10:33.216Z,14.80
2023-12-24T04:13:04.291Z,14.78
2023-12-24T04:15:32.286Z,14.80
2023-12-24T04:18:00.767Z,14.80
2023-12-24T04:20:28.247Z,14.81
2023-12-24T04:22:55.413Z,14.76
2023-12-24T04:25:22.516Z,14.80
2023-12-24T04:27:49.658Z,14.80
2023-12-24T04:30:16.901Z,14.77
2023-12-24T04:32:44.694Z,14.77
2023-12-24T04:35:12.451Z,14.75
2023-12-24T04:37:39.571Z,14.77
2023-12-24T04:40:07.839Z,14.72
2023-12-24T04:42:35.570Z,14.67
2023-12-24T04:45:03.566Z,14.74
2023-12-24T04:47:30.754Z,14.71
2023-12-24T04:49:58.041Z,14.70
2023-12-24T04:52:25.152Z,14.63
2023-12-24T04:54:52.294Z,14.71
2023-12-24T04:57:19.414Z,14.70
2023-12-24T04:59:46.806Z,14.75
2023-12-24T05:02:13.975Z,14.73
2023-12-24T05:04:41.045Z,14.74
2023-12-24T05:07:08.277Z,14.71
2023-12-24T05:09:35.850Z,14.78
2023-12-24T05:12:03.085Z,14.81
2023-12-24T05:14:30.937Z,14.80
2023-12-24T05:16:58.189Z,14.77
2023-12-24T05:19:25.399Z,14.78
2023-12-24T05:21:52.548Z,14.77
2023-12-24T05:24:19.694Z,14.83
2023-12-24T05:26:47.466Z,14.84
2023-12-24T05:29:14.924Z,14.87
2023-12-24T05:31:43.103Z,14.88
2023-12-24T05:34:10.260Z,14.79
2023-12-24T05:36:39.717Z,14.86
2023-12-24T05:39:12.429Z,14.86
2023-12-24T05:41:39.708Z,14.84
2023-12-24T05:44:06.864Z,14.78
2023-12-24T05:46:33.944Z,14.74
2023-12-24T05:49:01.181Z,14.76
2023-12-24T05:51:28.525Z,14.76
2023-12-24T05:53:55.577Z,14.79
2023-12-24T05:56:22.701Z,14.76
2023-12-24T05:58:49.794Z,14.79
2023-12-24T06:01:16.987Z,14.71
2023-12-24T06:03:44.203Z,14.70
2023-12-24T06:06:11.681Z,14.68
2023-12-24T06:08:39.487Z,14.63
2023-12-24T06:11:06.863Z,14.65
2023-12-24T06:13:34.006Z,14.65
2023-12-24T06:16:01.097Z,14.59
2023-12-24T06:18:28.371Z,14.62
2023-12-24T06:20:55.658Z,14.59
2023-12-24T06:23:22.821Z,14.60
2023-12-24T06:25:49.948Z,14.57
2023-12-24T06:28:17.056Z,14.64
2023-12-24T06:30:44.338Z,14.62
2023-12-24T06:33:11.594Z,14.58
2023-12-24T06:35:38.836Z,14.47
2023-12-24T06:38:06.048Z,14.52
2023-12-24T06:40:33.469Z,14.53
2023-12-24T06:43:00.550Z,14.48
2023-12-24T06:45:27.688Z,14.50
2023-12-24T06:47:55.080Z,14.48
2023-12-24T06:50:23.524Z,14.46
2023-12-24T06:52:50.970Z,14.40
2023-12-24T06:55:18.204Z,14.40
2023-12-24T06:57:45.258Z,14.47
2023-12-24T07:00:13.331Z,14.48
2023-12-24T07:02:40.497Z,14.48
2023-12-24T07:05:08.144Z,14.44
2023-12-24T07:07:35.291Z,14.43
2023-12-24T07:10:03.550Z,14.44
2023-12-24T07:12:31.376Z,14.45
2023-12-24T07:14:58.512Z,14.43
2023-12-24T07:17:25.775Z,14.41
2023-12-24T07:19:53.048Z,14.40
2023-12-24T07:22:21.085Z,14.36
2023-12-24T07:24:48.162Z,14.38
2023-12-24T07:27:15.444Z,14.41
2023-12-24T07:29:42.862Z,14.43
2023-12-24T07:32:10.474Z,14.43
2023-12-24T07:34:37.517Z,14.46
2023-12-24T07:37:04.801Z,14.43
2023-12-24T07:39:31.877Z,14.44
2023-12-24T07:41:58.964Z,14.45
2023-12-24T07:44:26.142Z,14.41
2023-12-24T07:46:53.390Z,14.45
2023-12-24T07:49:20.542Z,14.41
2023-12-24T07:51:48.878Z,14.43
2023-12-24T07:54:16.176Z,14.45
2023-12-24T07:56:43.370Z,14.42
2023-12-24T07:59:10.544Z,14.42
2023-12-24T08:01:41.098Z,14.35
2023-12-24T08:04:08.198Z,14.29
2023-12-24T08:06:35.657Z,14.31
2023-12-24T08:09:03.469Z,14.29
2023-12-24T08:11:30.613Z,14.27
2023-12-24T08:13:57.749Z,14.20
2023-12-24T08:16:24.843Z,14.17
2023-12-24T08:18:52.074Z,14.15
2023-12-24T08:21:19.315Z,14.15
2023-12-24T08:23:46.376Z,14.12
2023-12-24T08:26:14.984Z,14.14
2023-12-24T08:28:42.547Z,14.15
2023-12-24T08:31:09.619Z,14.12
2023-12-24T08:33:36.738Z,14.12
2023-12-24T08:36:05.217Z,14.15
2023-12-24T08:38:32.369Z,14.08
2023-12-24T08:40:59.761Z,14.09
2023-12-24T08:43:26.802Z,14.04
2023-12-24T08:45:53.864Z,14.06
2023-12-24T08:48:21.224Z,14.06
2023-12-24T08:50:48.502Z,14.04
2023-12-24T08:53:15.687Z,14.01
2023-12-24T08:55:42.782Z,14.01
2023-12-24T08:58:10.113Z,13.99
2023-12-24T09:00:37.210Z,13.94
2023-12-24T09:03:04.830Z,13.90
2023-12-24T09:05:31.998Z,13.96
2023-12-24T09:07:59.679Z,13.99
2023-12-24T09:10:26.728Z,14.02
2023-12-24T09:12:54.121Z,14.00
2023-12-24T09:15:21.548Z,14.00
2023-12-24T09:17:48.821Z,14.02
2023-12-24T09:20:16.046Z,14.03
2023-12-24T09:22:43.175Z,14.02
2023-12-24T09:25:10.284Z,14.05
2023-12-24T09:27:37.431Z,14.04
2023-12-24T09:30:06.206Z,14.07
2023-12-24T09:32:34.072Z,14.05
2023-12-24T09:35:02.116Z,14.06
2023-12-24T09:37:29.389Z,14.10
2023-12-24T09:39:56.508Z,14.10
2023-12-24T09:42:24.049Z,14.10
2023-12-24T09:44:51.213Z,14.13
2023-12-24T09:47:18.462Z,14.14
2023-12-24T09:49:45.691Z,14.16
2023-12-24T09:52:12.845Z,14.15
2023-12-24T09:54:40.346Z,14.22
2023-12-24T09:57:08.232Z,14.20
2023-12-24T09:59:35.326Z,14.19
2023-12-24T10:02:05.171Z,14.23
2023-12-24T10:04:32.650Z,14.25
2023-12-24T10:07:00.727Z,14.26
2023-12-24T10:09:50.482Z,14.27
2023-12-24T10:12:19.473Z,14.24
2023-12-24T10:14:59.253Z,14.25
2023-12-24T10:17:35.152Z,14.21
2023-12-24T10:20:09.695Z,14.20
2023-12-24T10:22:37.082Z,14.18
2023-12-24T10:25:08.512Z,14.20
2023-12-24T10:27:36.063Z,14.02
2023-12-24T10:30:14.562Z,14.13
2023-12-24T10:32:44.134Z,14.13
2023-12-24T10:35:11.769Z,14.13
2023-12-24T10:37:39.106Z,14.12
2023-12-24T10:40:12.291Z,14.07
2023-12-24T10:42:41.020Z,14.08
2023-12-24T10:45:09.807Z,14.05
2023-12-24T10:47:38.088Z,14.03
2023-12-24T10:50:06.457Z,14.04
2023-12-24T10:52:33.934Z,14.08
2023-12-24T10:55:02.709Z,14.10
2023-12-24T10:57:41.273Z,14.12
2023-12-24T11:00:12.416Z,14.08
2023-12-24T11:02:46.305Z,14.11
2023-12-24T11:05:33.739Z,14.12
2023-12-24T11:08:00.896Z,14.14
2023-12-24T11:10:44.842Z,14.22
2023-12-24T11:13:33.053Z,14.22
2023-12-24T11:16:02.444Z,14.22
2023-12-24T11:18:45.724Z,14.23
2023-12-24T11:21:21.259Z,14.19
2023-12-24T11:24:11.964Z,14.25
2023-12-24T11:26:39.446Z,14.20
2023-12-24T11:29:50.744Z,14.25
2023-12-24T11:32:27.633Z,14.22
2023-12-24T11:35:00.376Z,14.24
2023-12-24T11:37:35.628Z,14.27
2023-12-24T11:40:03.300Z,14.26
2023-12-24T11:42:52.631Z,14.29
2023-12-24T11:45:32.875Z,14.30
2023-12-24T11:48:02.661Z,14.20
2023-12-24T11:50:30.677Z,14.25
2023-12-24T11:52:58.610Z,14.30
2023-12-24T11:55:25.842Z,14.31
2023-12-24T11:57:53.063Z,14.30
2023-12-24T12:00:28.196Z,14.32
2023-12-24T12:03:01.288Z,14.28
2023-12-24T12:05:30.330Z,14.21
2023-12-24T12:07:58.035Z,14.22
2023-12-24T12:10:25.289Z,14.19
2023-12-24T12:12:52.927Z,14.20
2023-12-24T12:15:24.765Z,14.19
2023-12-24T12:17:52.527Z,14.20
2023-12-24T12:20:20.465Z,14.22
2023-12-24T12:22:50.529Z,14.23
2023-12-24T12:25:18.200Z,14.26
2023-12-24T12:27:47.103Z,14.21
2023-12-24T12:30:15.669Z,14.26
2023-12-24T12:32:42.826Z,14.17
2023-12-24T12:35:12.073Z,14.23
2023-12-24T12:37:39.362Z,14.23
2023-12-24T12:40:07.611Z,14.20
2023-12-24T12:42:42.750Z,14.19
2023-12-24T12:45:12.262Z,14.18
2023-12-24T12:47:40.040Z,14.20
2023-12-24T12:50:08.551Z,14.20
2023-12-24T12:52:35.988Z,14.17
2023-12-24T12:55:09.106Z,14.19
2023-12-24T12:57:40.233Z,14.19
2023-12-24T13:00:31.603Z,14.20
2023-12-24T13:03:08.739Z,14.18
2023-12-24T13:05:36.125Z,14.18
2023-12-24T13:08:16.669Z,14.20
2023-12-24T13:10:44.429Z,14.19
2023-12-24T13:13:25.574Z,14.20
2023-12-24T13:16:08.509Z,14.13
2023-12-24T13:18:36.655Z,14.13
2023-12-24T13:21:08.840Z,14.14
2023-12-24T13:23:36.259Z,14.14
2023-12-24T13:26:05.219Z,14.12
2023-12-24T13:28:34.093Z,14.15
2023-12-24T13:31:02.613Z,14.17
2023-12-24T13:33:29.892Z,14.12
2023-12-24T13:35:57.135Z,14.18
2023-12-24T13:38:24.307Z,14.21
2023-12-24T13:40:53.170Z,14.25
2023-12-24T13:43:20.464Z,14.25
2023-12-24T13:45:47.897Z,14.23
2023-12-24T13:48:15.339Z,14.22
2023-12-24T13:50:43.429Z,14.23
2023-12-24T13:53:19.479Z,14.19
2023-12-24T13:55:58.542Z,14.20
2023-12-24T13:58:26.662Z,14.17
2023-12-24T14:00:53.948Z,14.14
2023-12-24T14:03:26.024Z,14.20
2023-12-24T14:05:53.791Z,14.17
2023-12-24T14:08:24.047Z,14.22
2023-12-24T14:10:51.297Z,14.20
2023-12-24T14:13:18.476Z,14.26
2023-12-24T14:15:45.827Z,14.26
2023-12-24T14:18:13.048Z,14.25
2023-12-24T14:20:40.391Z,14.27
2023-12-24T14:23:09.424Z,14.22
2023-12-24T14:25:36.940Z,14.27
2023-12-24T14:28:04.500Z,14.31
2023-12-24T14:30:31.881Z,14.35
2023-12-24T14:32:59.278Z,14.40
2023-12-24T14:35:26.648Z,14.41
2023-12-24T14:37:53.739Z,14.38
2023-12-24T14:40:22.028Z,14.37
2023-12-24T14:42:50.081Z,14.33
2023-12-24T14:45:17.227Z,14.36
2023-12-24T14:47:44.439Z,14.37
2023-12-24T14:50:11.655Z,14.30
2023-12-24T14:52:38.715Z,14.30
2023-12-24T14:55:08.303Z,14.33
2023-12-24T14:57:36.942Z,14.31
2023-12-24T15:00:06.699Z,14.34
2023-12-24T15:02:33.958Z,14.33
2023-12-24T15:05:01.560Z,14.32
2023-12-24T15:07:29.556Z,14.34
2023-12-24T15:09:57.410Z,14.35
2023-12-24T15:12:24.644Z,14.37
2023-12-24T15:14:52.484Z,14.35
2023-12-24T15:17:19.836Z,14.38
2023-12-24T15:19:47.003Z,14.40
2023-12-24T15:22:14.498Z,14.39
2023-12-24T15:24:41.834Z,14.41
2023-12-24T15:27:09.478Z,14.41
2023-12-24T15:29:37.318Z,14.47
2023-12-24T15:32:11.330Z,14.49
2023-12-24T15:34:38.876Z,14.48
2023-12-24T15:37:06.061Z,14.50
2023-12-24T15:39:35.848Z,14.55
2023-12-24T15:42:05.981Z,14.55
2023-12-24T15:44:33.273Z,14.55
2023-12-24T15:47:00.370Z,14.57
2023-12-24T15:49:27.560Z,14.56
2023-12-24T15:51:54.592Z,14.59
2023-12-24T15:54:21.755Z,14.59
2023-12-24T15:56:48.974Z,14.57
2023-12-24T15:59:16.086Z,14.58
2023-12-24T16:01:44.586Z,14.61
2023-12-24T16:04:13.583Z,14.57
2023-12-24T16:06:41.649Z,14.58
2023-12-24T16:09:09.093Z,14.64
2023-12-24T16:11:37.434Z,14.63
2023-12-24T16:14:08.144Z,14.68
2023-12-24T16:16:36.031Z,14.66
2023-12-24T16:19:03.859Z,14.70
2023-12-24T16:21:33.611Z,14.71
2023-12-24T16:24:02.200Z,14.70
2023-12-24T16:26:29.403Z,14.69
2023-12-24T16:28:56.499Z,14.73
2023-12-24T16:31:23.714Z,14.67
2023-12-24T16:33:51.005Z,14.76
2023-12-24T16:36:25.537Z,14.78
2023-12-24T16:38:55.279Z,14.80
2023-12-24T16:41:23.857Z,14.82
2023-12-24T16:43:51.464Z,14.83
2023-12-24T16:46:18.538Z,14.85
2023-12-24T16:48:46.041Z,14.87
2023-12-24T16:51:32.470Z,14.95
2023-12-24T16:54:00.922Z,14.95
2023-12-24T16:56:28.631Z,14.98
2023-12-24T16:58:55.824Z,14.99
2023-12-24T17:01:22.928Z,14.99
2023-12-24T17:03:50.054Z,15.02
2023-12-24T17:06:17.330Z,15.03
2023-12-24T17:08:45.208Z,15.02
2023-12-24T17:11:12.662Z,15.06
2023-12-24T17:13:42.307Z,15.07
2023-12-24T17:16:09.476Z,15.05
2023-12-24T17:18:36.755Z,15.07
2023-12-24T17:21:04.212Z,15.09
2023-12-24T17:23:31.293Z,15.14
2023-12-24T17:25:59.401Z,15.17
2023-12-24T17:28:26.507Z,15.17
2023-12-24T17:30:53.754Z,15.18
2023-12-24T17:33:21.126Z,15.22
2023-12-24T17:35:48.444Z,15.20
2023-12-24T17:38:16.514Z,15.24
2023-12-24T17:40:43.744Z,15.27
2023-12-24T17:43:10.862Z,15.18
2023-12-24T17:45:37.944Z,15.26
2023-12-24T17:48:13.573Z,15.31
2023-12-24T17:50:46.755Z,15.15
2023-12-24T17:53:14.244Z,15.22
2023-12-24T17:55:42.271Z,15.31
2023-12-24T17:58:10.359Z,15.35
2023-12-24T18:00:37.686Z,15.32
2023-12-24T18:03:05.246Z,15.40
2023-12-24T18:05:32.552Z,15.41
2023-12-24T18:07:59.741Z,15.41
2023-12-24T18:10:26.865Z,15.40
2023-12-24T18:12:54.222Z,15.42
2023-12-24T18:15:21.581Z,15.39
2023-12-24T18:17:49.009Z,15.38
2023-12-24T18:20:16.970Z,15.39
2023-12-24T18:22:44.478Z,15.42
2023-12-24T18:25:11.720Z,15.45
2023-12-24T18:27:38.822Z,15.45
2023-12-24T18:30:06.814Z,15.49
2023-12-24T18:32:34.100Z,15.53
2023-12-24T18:35:01.245Z,15.53
2023-12-24T18:37:28.624Z,15.52
2023-12-24T18:39:55.761Z,15.51
2023-12-24T18:42:23.163Z,15.49
2023-12-24T18:44:50.298Z,15.46
2023-12-24T18:47:17.681Z,15.48
2023-12-24T18:49:46.758Z,15.48
2023-12-24T18:52:13.845Z,15.50
2023-12-24T18:54:45.772Z,15.52
2023-12-24T18:57:14.369Z,15.50
2023-12-24T18:59:41.702Z,15.47
2023-12-24T19:02:09.014Z,15.49
2023-12-24T19:04:36.822Z,15.47
2023-12-24T19:07:07.094Z,15.48
2023-12-24T19:09:35.218Z,15.51
2023-12-24T19:12:02.382Z,15.54
2023-12-24T19:14:29.623Z,15.51
2023-12-24T19:16:56.769Z,15.55
2023-12-24T19:19:24.001Z,15.53
2023-12-24T19:21:51.171Z,15.47
2023-12-24T19:24:22.982Z,15.53
2023-12-24T19:26:50.366Z,15.49
2023-12-24T19:29:17.615Z,15.46
2023-12-24T19:31:44.784Z,15.50
2023-12-24T19:34:11.944Z,15.42
2023-12-24T19:36:39.133Z,15.57
2023-12-24T19:39:06.269Z,15.57
2023-12-24T19:41:33.480Z,15.55
2023-12-24T19:44:00.716Z,15.58
2023-12-24T19:46:27.832Z,15.57
2023-12-24T19:48:55.336Z,15.58
2023-12-24T19:51:23.499Z,15.52
2023-12-24T19:53:52.758Z,15.57
2023-12-24T19:56:20.233Z,15.55
2023-12-24T19:58:47.635Z,15.60
2023-12-24T20:01:14.818Z,15.59
2023-12-24T20:03:41.881Z,15.64
2023-12-24T20:06:09.216Z,15.67
2023-12-24T20:08:36.550Z,15.67
2023-12-24T20:11:03.932Z,15.65
2023-12-24T20:13:31.045Z,15.69
2023-12-24T20:15:58.159Z,15.65
2023-12-24T20:18:25.522Z,15.66
2023-12-24T20:20:52.732Z,15.66
2023-12-24T20:23:20.001Z,15.67
2023-12-24T20:25:47.190Z,15.72
2023-12-24T20:28:14.268Z,15.76
2023-12-24T20:30:41.897Z,15.72
2023-12-24T20:33:11.245Z,15.71
2023-12-24T20:35:38.536Z,15.80
2023-12-24T20:38:05.736Z,15.81
2023-12-24T20:40:32.886Z,15.81
2023-12-24T20:43:00.514Z,15.85
2023-12-24T20:45:27.901Z,15.84
2023-12-24T20:47:55.205Z,15.82
2023-12-24T20:50:22.392Z,15.82
2023-12-24T20:52:49.455Z,15.74
2023-12-24T20:55:16.625Z,15.80
2023-12-24T20:57:43.792Z,15.82
2023-12-24T21:00:11.903Z,15.81
2023-12-24T21:02:39.187Z,15.82
2023-12-24T21:05:08.309Z,15.81
2023-12-24T21:07:35.468Z,15.81
2023-12-24T21:10:02.628Z,15.86
2023-12-24T21:12:29.678Z,15.90
2023-12-24T21:14:56.829Z,15.90
2023-12-24T21:17:24.140Z,15.88
2023-12-24T21:19:51.524Z,15.94
2023-12-24T21:22:18.663Z,15.93
2023-12-24T21:24:45.714Z,15.95
2023-12-24T21:27:12.762Z,15.94
2023-12-24T21:29:39.895Z,15.90
2023-12-24T21:32:07.234Z,16.00
2023-12-24T21:34:34.394Z,15.97
2023-12-24T21:37:01.449Z,15.96
2023-12-24T21:39:28.958Z,16.02
2023-12-24T21:41:56.211Z,16.05
2023-12-24T21:44:23.802Z,16.05
2023-12-24T21:46:50.960Z,16.07
2023-12-24T21:49:18.281Z,16.08
2023-12-24T21:51:49.771Z,16.06
2023-12-24T21:54:18.448Z,15.95
2023-12-24T21:56:45.669Z,15.95
2023-12-24T21:59:12.977Z,16.08
2023-12-24T22:01:40.330Z,16.04
2023-12-24T22:04:07.593Z,16.13
2023-12-24T22:06:34.804Z,16.15
2023-12-24T22:09:02.016Z,16.17
2023-12-24T22:11:29.318Z,16.15
2023-12-24T22:13:56.426Z,16.18
2023-12-24T22:16:23.598Z,16.16
2023-12-24T22:18:51.240Z,16.21
2023-12-24T22:21:18.476Z,16.21
2023-12-24T22:23:45.645Z,16.22
2023-12-24T22:26:13.223Z,16.19
2023-12-24T22:28:40.473Z,16.20
2023-12-24T22:31:08.162Z,16.26
2023-12-24T22:33:35.763Z,16.25
2023-12-24T22:36:03.376Z,16.28
2023-12-24T22:38:30.678Z,16.29
2023-12-24T22:40:58.260Z,16.30
2023-12-24T22:43:25.399Z,16.31
2023-12-24T22:45:52.809Z,16.33
2023-12-24T22:48:20.318Z,16.32
2023-12-24T22:50:47.768Z,16.33
2023-12-24T22:53:15.220Z,16.25
2023-12-24T22:55:42.544Z,16.31
2023-12-24T22:58:09.903Z,16.30
2023-12-24T23:00:37.110Z,16.24
2023-12-24T23:03:04.717Z,16.27
2023-12-24T23:05:31.960Z,16.26
2023-12-24T23:07:59.077Z,16.29
2023-12-24T23:10:26.488Z,16.27
2023-12-24T23:12:53.660Z,16.28
2023-12-24T23:15:20.867Z,16.29
2023-12-24T23:17:48.108Z,16.21
2023-12-24T23:20:15.437Z,16.29
2023-12-24T23:22:42.505Z,16.28
2023-12-24T23:25:09.624Z,16.25
2023-12-24T23:27:36.793Z,16.21
2023-12-24T23:30:05.139Z,16.25
2023-12-24T23:32:32.328Z,16.25
2023-12-24T23:34:59.527Z,16.25
2023-12-24T23:37:26.655Z,16.24
2023-12-24T23:39:53.794Z,16.26
2023-12-24T23:42:20.883Z,16.23
2023-12-24T23:44:48.027Z,16.25
2023-12-24T23:47:15.169Z,16.25
2023-12-24T23:49:42.356Z,16.24
2023-12-24T23:52:09.817Z,16.23
2023-12-24T23:54:36.950Z,16.21
2023-12-24T23:57:04.865Z,16.21
2023-12-24T23:59:33.946Z,16.20
